sensor_id;sensor_type;location;lat;lon;timestamp;P1;durP1;ratioP1;P2;durP2;ratioP2
29422;SDS011;16399;51.686;8.684;2024-01-30T00:00:51;17.00;;;7.75;;
29422;SDS011;16399;51.686;8.684;2024-01-30T00:03:54;13.55;;;6.95;;
29422;SDS011;16399;51.686;8.684;2024-01-30T00:06:56;14.35;;;6.95;;
29422;SDS011;16399;51.686;8.684;2024-01-30T00:09:58;16.17;;;7.28;;
29422;SDS011;16399;51.686;8.684;2024-01-30T00:13:00;11.95;;;6.15;;
29422;SDS011;16399;51.686;8.684;2024-01-30T00:16:03;14.87;;;7.53;;
29422;SDS011;16399;51.686;8.684;2024-01-30T00:19:06;14.40;;;7.03;;
29422;SDS011;16399;51.686;8.684;2024-01-30T00:22:08;16.55;;;7.70;;
29422;SDS011;16399;51.686;8.684;2024-01-30T00:25:11;13.00;;;7.08;;
29422;SDS011;16399;51.686;8.684;2024-01-30T00:28:13;17.48;;;7.50;;
29422;SDS011;16399;51.686;8.684;2024-01-30T00:31:15;13.80;;;7.90;;
29422;SDS011;16399;51.686;8.684;2024-01-30T00:34:17;13.93;;;7.95;;
29422;SDS011;16399;51.686;8.684;2024-01-30T00:37:20;17.05;;;7.42;;
29422;SDS011;16399;51.686;8.684;2024-01-30T00:40:22;13.83;;;7.78;;
29422;SDS011;16399;51.686;8.684;2024-01-30T00:43:24;14.00;;;8.05;;
29422;SDS011;16399;51.686;8.684;2024-01-30T00:46:27;17.37;;;8.13;;
29422;SDS011;16399;51.686;8.684;2024-01-30T00:49:29;17.73;;;8.03;;
29422;SDS011;16399;51.686;8.684;2024-01-30T00:52:31;18.07;;;7.75;;
29422;SDS011;16399;51.686;8.684;2024-01-30T00:55:33;13.98;;;7.60;;
29422;SDS011;16399;51.686;8.684;2024-01-30T00:58:36;19.32;;;8.58;;
29422;SDS011;16399;51.686;8.684;2024-01-30T01:01:38;18.30;;;8.95;;
29422;SDS011;16399;51.686;8.684;2024-01-30T01:04:41;17.32;;;8.50;;
29422;SDS011;16399;51.686;8.684;2024-01-30T01:07:43;14.47;;;7.42;;
29422;SDS011;16399;51.686;8.684;2024-01-30T01:10:47;15.23;;;7.73;;
29422;SDS011;16399;51.686;8.684;2024-01-30T01:13:49;13.78;;;7.58;;
29422;SDS011;16399;51.686;8.684;2024-01-30T01:16:51;15.88;;;8.50;;
29422;SDS011;16399;51.686;8.684;2024-01-30T01:19:54;14.45;;;7.25;;
29422;SDS011;16399;51.686;8.684;2024-01-30T01:22:56;15.85;;;7.55;;
29422;SDS011;16399;51.686;8.684;2024-01-30T01:25:58;12.15;;;7.42;;
29422;SDS011;16399;51.686;8.684;2024-01-30T01:29:01;13.18;;;7.60;;
29422;SDS011;16399;51.686;8.684;2024-01-30T01:32:05;12.93;;;7.40;;
29422;SDS011;16399;51.686;8.684;2024-01-30T01:35:08;13.10;;;7.20;;
29422;SDS011;16399;51.686;8.684;2024-01-30T01:38:10;15.05;;;8.03;;
29422;SDS011;16399;51.686;8.684;2024-01-30T01:41:13;15.93;;;7.28;;
29422;SDS011;16399;51.686;8.684;2024-01-30T01:44:15;12.20;;;7.75;;
29422;SDS011;16399;51.686;8.684;2024-01-30T01:47:19;15.40;;;7.50;;
29422;SDS011;16399;51.686;8.684;2024-01-30T01:50:22;16.73;;;8.00;;
29422;SDS011;16399;51.686;8.684;2024-01-30T01:53:25;15.20;;;7.95;;
29422;SDS011;16399;51.686;8.684;2024-01-30T01:56:28;16.00;;;8.23;;
29422;SDS011;16399;51.686;8.684;2024-01-30T01:59:31;13.48;;;7.60;;
29422;SDS011;16399;51.686;8.684;2024-01-30T02:02:35;11.65;;;6.72;;
29422;SDS011;16399;51.686;8.684;2024-01-30T02:05:38;14.58;;;7.58;;
29422;SDS011;16399;51.686;8.684;2024-01-30T02:08:41;17.95;;;8.48;;
29422;SDS011;16399;51.686;8.684;2024-01-30T02:11:43;18.37;;;8.25;;
29422;SDS011;16399;51.686;8.684;2024-01-30T02:14:46;16.45;;;7.85;;
29422;SDS011;16399;51.686;8.684;2024-01-30T02:17:48;17.12;;;8.15;;
29422;SDS011;16399;51.686;8.684;2024-01-30T02:20:51;17.30;;;8.53;;
29422;SDS011;16399;51.686;8.684;2024-01-30T02:23:55;15.48;;;8.60;;
29422;SDS011;16399;51.686;8.684;2024-01-30T02:26:59;19.20;;;7.80;;
29422;SDS011;16399;51.686;8.684;2024-01-30T02:30:01;17.02;;;8.80;;
29422;SDS011;16399;51.686;8.684;2024-01-30T02:33:04;16.37;;;7.67;;
29422;SDS011;16399;51.686;8.684;2024-01-30T02:36:06;16.35;;;7.90;;
29422;SDS011;16399;51.686;8.684;2024-01-30T02:39:08;16.95;;;8.70;;
29422;SDS011;16399;51.686;8.684;2024-01-30T02:42:11;16.52;;;8.00;;
29422;SDS011;16399;51.686;8.684;2024-01-30T02:45:13;14.63;;;8.10;;
29422;SDS011;16399;51.686;8.684;2024-01-30T02:48:15;15.25;;;8.18;;
29422;SDS011;16399;51.686;8.684;2024-01-30T02:51:18;13.88;;;8.05;;
29422;SDS011;16399;51.686;8.684;2024-01-30T02:54:20;13.75;;;8.33;;
29422;SDS011;16399;51.686;8.684;2024-01-30T02:57:22;14.45;;;7.97;;
29422;SDS011;16399;51.686;8.684;2024-01-30T03:00:24;14.30;;;8.50;;
29422;SDS011;16399;51.686;8.684;2024-01-30T03:03:27;16.35;;;7.85;;
29422;SDS011;16399;51.686;8.684;2024-01-30T03:06:29;14.40;;;7.95;;
29422;SDS011;16399;51.686;8.684;2024-01-30T03:09:31;12.30;;;7.62;;
29422;SDS011;16399;51.686;8.684;2024-01-30T03:12:33;18.48;;;8.23;;
29422;SDS011;16399;51.686;8.684;2024-01-30T03:15:36;18.90;;;9.08;;
29422;SDS011;16399;51.686;8.684;2024-01-30T03:18:38;17.55;;;8.43;;
29422;SDS011;16399;51.686;8.684;2024-01-30T03:21:40;20.85;;;9.08;;
29422;SDS011;16399;51.686;8.684;2024-01-30T03:24:43;15.95;;;8.18;;
29422;SDS011;16399;51.686;8.684;2024-01-30T03:27:45;13.90;;;8.00;;
29422;SDS011;16399;51.686;8.684;2024-01-30T03:30:47;20.57;;;8.03;;
29422;SDS011;16399;51.686;8.684;2024-01-30T03:33:49;14.58;;;7.72;;
29422;SDS011;16399;51.686;8.684;2024-01-30T03:36:52;17.40;;;8.28;;
29422;SDS011;16399;51.686;8.684;2024-01-30T03:39:54;15.70;;;8.13;;
29422;SDS011;16399;51.686;8.684;2024-01-30T03:42:57;13.93;;;7.62;;
29422;SDS011;16399;51.686;8.684;2024-01-30T03:45:59;14.70;;;7.58;;
29422;SDS011;16399;51.686;8.684;2024-01-30T03:49:02;12.65;;;7.47;;
29422;SDS011;16399;51.686;8.684;2024-01-30T03:52:04;15.50;;;8.08;;
29422;SDS011;16399;51.686;8.684;2024-01-30T03:55:07;14.00;;;7.97;;
29422;SDS011;16399;51.686;8.684;2024-01-30T03:58:09;15.53;;;8.23;;
29422;SDS011;16399;51.686;8.684;2024-01-30T04:01:14;16.37;;;8.10;;
29422;SDS011;16399;51.686;8.684;2024-01-30T04:04:21;18.50;;;8.13;;
29422;SDS011;16399;51.686;8.684;2024-01-30T04:07:20;15.23;;;7.63;;
29422;SDS011;16399;51.686;8.684;2024-01-30T04:10:23;13.88;;;7.60;;
29422;SDS011;16399;51.686;8.684;2024-01-30T04:13:25;16.75;;;8.48;;
29422;SDS011;16399;51.686;8.684;2024-01-30T04:16:27;14.05;;;7.65;;
29422;SDS011;16399;51.686;8.684;2024-01-30T04:19:30;17.75;;;8.00;;
29422;SDS011;16399;51.686;8.684;2024-01-30T04:22:32;14.50;;;7.95;;
29422;SDS011;16399;51.686;8.684;2024-01-30T04:25:34;15.18;;;7.95;;
29422;SDS011;16399;51.686;8.684;2024-01-30T04:28:36;18.15;;;8.03;;
29422;SDS011;16399;51.686;8.684;2024-01-30T04:31:39;14.18;;;7.90;;
29422;SDS011;16399;51.686;8.684;2024-01-30T04:34:41;15.15;;;7.62;;
29422;SDS011;16399;51.686;8.684;2024-01-30T04:37:43;17.02;;;8.13;;
29422;SDS011;16399;51.686;8.684;2024-01-30T04:40:47;19.05;;;8.45;;
29422;SDS011;16399;51.686;8.684;2024-01-30T04:43:49;15.75;;;7.87;;
29422;SDS011;16399;51.686;8.684;2024-01-30T04:46:51;16.40;;;7.55;;
29422;SDS011;16399;51.686;8.684;2024-01-30T04:49:54;13.60;;;7.95;;
29422;SDS011;16399;51.686;8.684;2024-01-30T04:52:56;15.28;;;7.60;;
29422;SDS011;16399;51.686;8.684;2024-01-30T04:55:58;13.93;;;7.70;;
29422;SDS011;16399;51.686;8.684;2024-01-30T04:59:01;15.45;;;7.92;;
29422;SDS011;16399;51.686;8.684;2024-01-30T05:02:04;14.83;;;7.83;;
29422;SDS011;16399;51.686;8.684;2024-01-30T05:05:07;14.07;;;7.53;;
29422;SDS011;16399;51.686;8.684;2024-01-30T05:08:09;18.60;;;8.23;;
29422;SDS011;16399;51.686;8.684;2024-01-30T05:11:12;19.23;;;7.80;;
29422;SDS011;16399;51.686;8.684;2024-01-30T05:14:14;19.87;;;8.48;;
29422;SDS011;16399;51.686;8.684;2024-01-30T05:17:17;15.95;;;7.72;;
29422;SDS011;16399;51.686;8.684;2024-01-30T05:20:19;15.25;;;7.87;;
29422;SDS011;16399;51.686;8.684;2024-01-30T05:23:21;14.95;;;7.47;;
29422;SDS011;16399;51.686;8.684;2024-01-30T05:26:23;17.65;;;8.58;;
29422;SDS011;16399;51.686;8.684;2024-01-30T05:29:27;13.58;;;8.13;;
29422;SDS011;16399;51.686;8.684;2024-01-30T05:32:29;18.67;;;7.58;;
29422;SDS011;16399;51.686;8.684;2024-01-30T05:35:31;14.43;;;8.38;;
29422;SDS011;16399;51.686;8.684;2024-01-30T05:38:34;16.70;;;7.70;;
29422;SDS011;16399;51.686;8.684;2024-01-30T05:41:36;14.18;;;6.92;;
29422;SDS011;16399;51.686;8.684;2024-01-30T05:44:39;18.45;;;7.37;;
29422;SDS011;16399;51.686;8.684;2024-01-30T05:47:41;13.25;;;7.72;;
29422;SDS011;16399;51.686;8.684;2024-01-30T05:50:43;20.25;;;7.67;;
29422;SDS011;16399;51.686;8.684;2024-01-30T05:53:46;13.95;;;7.80;;
29422;SDS011;16399;51.686;8.684;2024-01-30T05:56:48;12.93;;;7.17;;
29422;SDS011;16399;51.686;8.684;2024-01-30T05:59:50;13.20;;;6.80;;
29422;SDS011;16399;51.686;8.684;2024-01-30T06:02:52;12.85;;;6.75;;
29422;SDS011;16399;51.686;8.684;2024-01-30T06:05:55;14.35;;;7.87;;
29422;SDS011;16399;51.686;8.684;2024-01-30T06:08:57;14.68;;;7.17;;
29422;SDS011;16399;51.686;8.684;2024-01-30T06:11:59;13.08;;;6.87;;
29422;SDS011;16399;51.686;8.684;2024-01-30T06:15:02;15.23;;;7.25;;
29422;SDS011;16399;51.686;8.684;2024-01-30T06:18:04;17.15;;;7.33;;
29422;SDS011;16399;51.686;8.684;2024-01-30T06:21:06;12.43;;;6.55;;
29422;SDS011;16399;51.686;8.684;2024-01-30T06:24:09;18.25;;;8.03;;
29422;SDS011;16399;51.686;8.684;2024-01-30T06:27:11;16.32;;;7.75;;
29422;SDS011;16399;51.686;8.684;2024-01-30T06:30:14;15.43;;;7.20;;
29422;SDS011;16399;51.686;8.684;2024-01-30T06:33:16;12.63;;;6.87;;
29422;SDS011;16399;51.686;8.684;2024-01-30T06:36:18;10.65;;;6.75;;
29422;SDS011;16399;51.686;8.684;2024-01-30T06:39:21;12.45;;;6.90;;
29422;SDS011;16399;51.686;8.684;2024-01-30T06:42:23;14.30;;;7.00;;
29422;SDS011;16399;51.686;8.684;2024-01-30T06:45:26;13.43;;;7.20;;
29422;SDS011;16399;51.686;8.684;2024-01-30T06:48:28;15.85;;;7.58;;
29422;SDS011;16399;51.686;8.684;2024-01-30T06:51:30;17.98;;;7.00;;
29422;SDS011;16399;51.686;8.684;2024-01-30T06:54:33;16.17;;;6.80;;
29422;SDS011;16399;51.686;8.684;2024-01-30T06:57:35;12.28;;;7.30;;
29422;SDS011;16399;51.686;8.684;2024-01-30T07:00:37;14.83;;;7.20;;
29422;SDS011;16399;51.686;8.684;2024-01-30T07:03:40;14.05;;;6.83;;
29422;SDS011;16399;51.686;8.684;2024-01-30T07:06:42;16.75;;;7.22;;
29422;SDS011;16399;51.686;8.684;2024-01-30T07:09:45;15.23;;;6.33;;
29422;SDS011;16399;51.686;8.684;2024-01-30T07:12:49;12.03;;;6.92;;
29422;SDS011;16399;51.686;8.684;2024-01-30T07:15:51;15.08;;;6.75;;
29422;SDS011;16399;51.686;8.684;2024-01-30T07:18:53;14.47;;;6.70;;
29422;SDS011;16399;51.686;8.684;2024-01-30T07:21:57;15.08;;;6.95;;
29422;SDS011;16399;51.686;8.684;2024-01-30T07:24:59;14.18;;;6.67;;
29422;SDS011;16399;51.686;8.684;2024-01-30T07:28:01;13.00;;;6.75;;
29422;SDS011;16399;51.686;8.684;2024-01-30T07:31:04;15.30;;;8.28;;
29422;SDS011;16399;51.686;8.684;2024-01-30T07:34:06;14.05;;;6.75;;
29422;SDS011;16399;51.686;8.684;2024-01-30T07:37:09;11.90;;;6.15;;
29422;SDS011;16399;51.686;8.684;2024-01-30T07:40:13;14.00;;;6.67;;
29422;SDS011;16399;51.686;8.684;2024-01-30T07:43:15;12.15;;;6.35;;
29422;SDS011;16399;51.686;8.684;2024-01-30T07:46:17;11.40;;;6.35;;
29422;SDS011;16399;51.686;8.684;2024-01-30T07:49:20;13.98;;;7.00;;
29422;SDS011;16399;51.686;8.684;2024-01-30T07:52:22;12.58;;;6.08;;
29422;SDS011;16399;51.686;8.684;2024-01-30T07:55:24;14.80;;;6.10;;
29422;SDS011;16399;51.686;8.684;2024-01-30T07:58:28;14.13;;;6.60;;
29422;SDS011;16399;51.686;8.684;2024-01-30T08:01:30;16.48;;;5.92;;
29422;SDS011;16399;51.686;8.684;2024-01-30T08:04:33;12.13;;;5.72;;
29422;SDS011;16399;51.686;8.684;2024-01-30T08:07:35;11.55;;;6.30;;
29422;SDS011;16399;51.686;8.684;2024-01-30T08:10:37;10.85;;;6.25;;
29422;SDS011;16399;51.686;8.684;2024-01-30T08:13:40;10.72;;;6.12;;
29422;SDS011;16399;51.686;8.684;2024-01-30T08:16:42;12.75;;;6.62;;
29422;SDS011;16399;51.686;8.684;2024-01-30T08:19:44;13.38;;;6.33;;
29422;SDS011;16399;51.686;8.684;2024-01-30T08:22:46;13.72;;;6.20;;
29422;SDS011;16399;51.686;8.684;2024-01-30T08:25:49;13.48;;;6.28;;
29422;SDS011;16399;51.686;8.684;2024-01-30T08:28:51;13.48;;;6.20;;
29422;SDS011;16399;51.686;8.684;2024-01-30T08:31:54;13.15;;;6.20;;
29422;SDS011;16399;51.686;8.684;2024-01-30T08:34:56;10.72;;;6.25;;
29422;SDS011;16399;51.686;8.684;2024-01-30T08:37:59;12.37;;;6.17;;
29422;SDS011;16399;51.686;8.684;2024-01-30T08:41:01;14.05;;;6.03;;
29422;SDS011;16399;51.686;8.684;2024-01-30T08:44:04;12.03;;;6.33;;
29422;SDS011;16399;51.686;8.684;2024-01-30T08:47:06;12.35;;;6.20;;
29422;SDS011;16399;51.686;8.684;2024-01-30T08:50:08;10.72;;;5.87;;
29422;SDS011;16399;51.686;8.684;2024-01-30T08:53:10;10.60;;;6.25;;
29422;SDS011;16399;51.686;8.684;2024-01-30T08:56:13;14.18;;;6.25;;
29422;SDS011;16399;51.686;8.684;2024-01-30T08:59:16;11.97;;;6.57;;
29422;SDS011;16399;51.686;8.684;2024-01-30T09:02:19;11.00;;;6.45;;
29422;SDS011;16399;51.686;8.684;2024-01-30T09:05:21;11.65;;;6.03;;
29422;SDS011;16399;51.686;8.684;2024-01-30T09:08:24;12.20;;;6.08;;
29422;SDS011;16399;51.686;8.684;2024-01-30T09:11:26;10.10;;;6.17;;
29422;SDS011;16399;51.686;8.684;2024-01-30T09:14:28;9.35;;;5.97;;
29422;SDS011;16399;51.686;8.684;2024-01-30T09:17:31;14.18;;;7.08;;
29422;SDS011;16399;51.686;8.684;2024-01-30T09:20:33;11.08;;;6.17;;
29422;SDS011;16399;51.686;8.684;2024-01-30T09:23:36;13.32;;;6.90;;
29422;SDS011;16399;51.686;8.684;2024-01-30T09:26:38;14.70;;;6.80;;
29422;SDS011;16399;51.686;8.684;2024-01-30T09:29:40;13.35;;;6.28;;
29422;SDS011;16399;51.686;8.684;2024-01-30T09:32:42;13.20;;;6.90;;
29422;SDS011;16399;51.686;8.684;2024-01-30T09:35:45;10.40;;;6.53;;
29422;SDS011;16399;51.686;8.684;2024-01-30T09:38:47;14.55;;;6.97;;
29422;SDS011;16399;51.686;8.684;2024-01-30T09:41:53;11.50;;;7.28;;
29422;SDS011;16399;51.686;8.684;2024-01-30T09:44:55;14.40;;;7.10;;
29422;SDS011;16399;51.686;8.684;2024-01-30T09:47:59;14.47;;;7.47;;
29422;SDS011;16399;51.686;8.684;2024-01-30T09:51:01;12.28;;;7.20;;
29422;SDS011;16399;51.686;8.684;2024-01-30T09:54:04;12.47;;;7.50;;
29422;SDS011;16399;51.686;8.684;2024-01-30T09:57:06;16.70;;;7.22;;
29422;SDS011;16399;51.686;8.684;2024-01-30T10:00:10;12.63;;;7.17;;
29422;SDS011;16399;51.686;8.684;2024-01-30T10:03:14;12.28;;;6.75;;
29422;SDS011;16399;51.686;8.684;2024-01-30T10:06:16;14.07;;;7.03;;
29422;SDS011;16399;51.686;8.684;2024-01-30T10:09:19;14.18;;;7.35;;
29422;SDS011;16399;51.686;8.684;2024-01-30T10:12:22;12.50;;;7.40;;
29422;SDS011;16399;51.686;8.684;2024-01-30T10:15:25;15.38;;;8.78;;
29422;SDS011;16399;51.686;8.684;2024-01-30T10:18:29;14.23;;;8.30;;
29422;SDS011;16399;51.686;8.684;2024-01-30T10:21:31;11.63;;;7.55;;
29422;SDS011;16399;51.686;8.684;2024-01-30T10:24:34;14.45;;;7.78;;
29422;SDS011;16399;51.686;8.684;2024-01-30T10:27:36;12.45;;;7.15;;
29422;SDS011;16399;51.686;8.684;2024-01-30T10:30:40;13.07;;;7.60;;
29422;SDS011;16399;51.686;8.684;2024-01-30T10:33:42;11.83;;;7.20;;
29422;SDS011;16399;51.686;8.684;2024-01-30T10:36:46;11.63;;;7.03;;
29422;SDS011;16399;51.686;8.684;2024-01-30T10:39:52;13.40;;;7.30;;
29422;SDS011;16399;51.686;8.684;2024-01-30T10:42:58;12.53;;;7.65;;
29422;SDS011;16399;51.686;8.684;2024-01-30T10:46:11;14.18;;;7.95;;
29422;SDS011;16399;51.686;8.684;2024-01-30T10:49:14;12.37;;;6.87;;
29422;SDS011;16399;51.686;8.684;2024-01-30T10:52:18;14.47;;;7.73;;
29422;SDS011;16399;51.686;8.684;2024-01-30T10:55:21;13.03;;;7.03;;
29422;SDS011;16399;51.686;8.684;2024-01-30T10:58:24;11.78;;;7.12;;
29422;SDS011;16399;51.686;8.684;2024-01-30T11:01:28;16.35;;;7.03;;
29422;SDS011;16399;51.686;8.684;2024-01-30T11:04:37;11.97;;;6.62;;
29422;SDS011;16399;51.686;8.684;2024-01-30T11:07:41;12.40;;;7.00;;
29422;SDS011;16399;51.686;8.684;2024-01-30T11:10:46;12.30;;;6.67;;
29422;SDS011;16399;51.686;8.684;2024-01-30T11:13:49;10.95;;;6.85;;
29422;SDS011;16399;51.686;8.684;2024-01-30T11:16:52;15.32;;;6.78;;
29422;SDS011;16399;51.686;8.684;2024-01-30T11:19:54;13.25;;;7.33;;
29422;SDS011;16399;51.686;8.684;2024-01-30T11:22:59;16.13;;;7.63;;
29422;SDS011;16399;51.686;8.684;2024-01-30T11:29:07;9.23;;;5.87;;
29422;SDS011;16399;51.686;8.684;2024-01-30T11:32:09;11.85;;;6.17;;
29422;SDS011;16399;51.686;8.684;2024-01-30T11:35:12;13.68;;;6.72;;
29422;SDS011;16399;51.686;8.684;2024-01-30T11:38:14;10.40;;;6.22;;
29422;SDS011;16399;51.686;8.684;2024-01-30T11:41:17;10.53;;;6.05;;
29422;SDS011;16399;51.686;8.684;2024-01-30T11:44:20;10.25;;;6.20;;
29422;SDS011;16399;51.686;8.684;2024-01-30T11:47:22;11.50;;;6.12;;
29422;SDS011;16399;51.686;8.684;2024-01-30T11:50:25;8.75;;;4.25;;
29422;SDS011;16399;51.686;8.684;2024-01-30T11:53:27;10.32;;;3.62;;
29422;SDS011;16399;51.686;8.684;2024-01-30T11:56:29;6.85;;;3.05;;
29422;SDS011;16399;51.686;8.684;2024-01-30T11:59:32;9.13;;;3.80;;
29422;SDS011;16399;51.686;8.684;2024-01-30T12:02:34;8.85;;;3.17;;
29422;SDS011;16399;51.686;8.684;2024-01-30T12:05:37;9.83;;;3.40;;
29422;SDS011;16399;51.686;8.684;2024-01-30T12:08:41;7.95;;;2.87;;
29422;SDS011;16399;51.686;8.684;2024-01-30T12:11:45;6.93;;;3.50;;
29422;SDS011;16399;51.686;8.684;2024-01-30T12:14:48;8.33;;;2.90;;
29422;SDS011;16399;51.686;8.684;2024-01-30T12:17:50;13.53;;;3.62;;
29422;SDS011;16399;51.686;8.684;2024-01-30T12:20:59;8.30;;;3.20;;
29422;SDS011;16399;51.686;8.684;2024-01-30T12:24:01;7.67;;;3.20;;
29422;SDS011;16399;51.686;8.684;2024-01-30T12:27:04;8.45;;;2.83;;
29422;SDS011;16399;51.686;8.684;2024-01-30T12:30:13;6.22;;;2.87;;
29422;SDS011;16399;51.686;8.684;2024-01-30T12:33:18;8.13;;;3.52;;
29422;SDS011;16399;51.686;8.684;2024-01-30T12:36:21;7.75;;;3.17;;
29422;SDS011;16399;51.686;8.684;2024-01-30T12:39:23;8.73;;;3.52;;
29422;SDS011;16399;51.686;8.684;2024-01-30T12:42:26;10.30;;;3.30;;
29422;SDS011;16399;51.686;8.684;2024-01-30T12:45:28;7.45;;;2.87;;
29422;SDS011;16399;51.686;8.684;2024-01-30T12:48:31;10.05;;;4.10;;
29422;SDS011;16399;51.686;8.684;2024-01-30T12:51:34;8.50;;;3.58;;
29422;SDS011;16399;51.686;8.684;2024-01-30T12:54:36;8.23;;;3.70;;
29422;SDS011;16399;51.686;8.684;2024-01-30T12:57:38;8.28;;;3.52;;
29422;SDS011;16399;51.686;8.684;2024-01-30T13:00:42;11.12;;;3.02;;
29422;SDS011;16399;51.686;8.684;2024-01-30T13:03:45;12.13;;;3.90;;
29422;SDS011;16399;51.686;8.684;2024-01-30T13:06:48;10.35;;;3.92;;
29422;SDS011;16399;51.686;8.684;2024-01-30T13:09:50;9.68;;;3.47;;
29422;SDS011;16399;51.686;8.684;2024-01-30T13:12:52;9.85;;;3.80;;
29422;SDS011;16399;51.686;8.684;2024-01-30T13:15:55;14.30;;;3.75;;
29422;SDS011;16399;51.686;8.684;2024-01-30T13:18:57;12.25;;;3.37;;
29422;SDS011;16399;51.686;8.684;2024-01-30T13:22:01;11.28;;;3.90;;
29422;SDS011;16399;51.686;8.684;2024-01-30T13:25:04;9.43;;;4.10;;
29422;SDS011;16399;51.686;8.684;2024-01-30T13:28:07;10.00;;;3.83;;
29422;SDS011;16399;51.686;8.684;2024-01-30T13:31:09;10.00;;;3.72;;
29422;SDS011;16399;51.686;8.684;2024-01-30T13:34:12;8.45;;;3.87;;
29422;SDS011;16399;51.686;8.684;2024-01-30T13:37:14;10.65;;;4.17;;
29422;SDS011;16399;51.686;8.684;2024-01-30T13:40:16;14.35;;;4.40;;
29422;SDS011;16399;51.686;8.684;2024-01-30T13:43:19;11.88;;;3.72;;
29422;SDS011;16399;51.686;8.684;2024-01-30T13:46:21;14.70;;;4.35;;
29422;SDS011;16399;51.686;8.684;2024-01-30T13:49:23;11.95;;;4.22;;
29422;SDS011;16399;51.686;8.684;2024-01-30T13:52:25;11.97;;;4.90;;
29422;SDS011;16399;51.686;8.684;2024-01-30T13:55:28;11.38;;;4.20;;
29422;SDS011;16399;51.686;8.684;2024-01-30T13:58:30;9.73;;;4.28;;
29422;SDS011;16399;51.686;8.684;2024-01-30T14:01:34;13.15;;;4.40;;
29422;SDS011;16399;51.686;8.684;2024-01-30T14:04:36;9.20;;;4.12;;
29422;SDS011;16399;51.686;8.684;2024-01-30T14:07:38;8.10;;;4.00;;
29422;SDS011;16399;51.686;8.684;2024-01-30T14:10:41;11.25;;;4.80;;
29422;SDS011;16399;51.686;8.684;2024-01-30T14:13:44;13.68;;;4.90;;
29422;SDS011;16399;51.686;8.684;2024-01-30T14:16:46;11.97;;;4.45;;
29422;SDS011;16399;51.686;8.684;2024-01-30T14:19:48;10.70;;;5.15;;
29422;SDS011;16399;51.686;8.684;2024-01-30T14:22:50;11.73;;;4.25;;
29422;SDS011;16399;51.686;8.684;2024-01-30T14:25:54;8.30;;;3.95;;
29422;SDS011;16399;51.686;8.684;2024-01-30T14:28:57;10.50;;;4.22;;
29422;SDS011;16399;51.686;8.684;2024-01-30T14:31:59;9.70;;;4.53;;
29422;SDS011;16399;51.686;8.684;2024-01-30T14:35:01;11.68;;;4.15;;
29422;SDS011;16399;51.686;8.684;2024-01-30T14:38:04;13.32;;;4.50;;
29422;SDS011;16399;51.686;8.684;2024-01-30T14:41:08;15.18;;;4.62;;
29422;SDS011;16399;51.686;8.684;2024-01-30T14:44:10;12.40;;;4.95;;
29422;SDS011;16399;51.686;8.684;2024-01-30T14:47:12;12.70;;;5.15;;
29422;SDS011;16399;51.686;8.684;2024-01-30T14:50:15;11.53;;;5.10;;
29422;SDS011;16399;51.686;8.684;2024-01-30T14:53:17;16.37;;;5.50;;
29422;SDS011;16399;51.686;8.684;2024-01-30T14:56:20;14.13;;;5.45;;
29422;SDS011;16399;51.686;8.684;2024-01-30T14:59:22;15.98;;;5.80;;
29422;SDS011;16399;51.686;8.684;2024-01-30T15:02:24;14.87;;;5.30;;
29422;SDS011;16399;51.686;8.684;2024-01-30T15:05:26;10.55;;;5.55;;
29422;SDS011;16399;51.686;8.684;2024-01-30T15:08:29;20.50;;;6.03;;
29422;SDS011;16399;51.686;8.684;2024-01-30T15:11:31;15.10;;;5.03;;
29422;SDS011;16399;51.686;8.684;2024-01-30T15:14:35;16.80;;;5.15;;
29422;SDS011;16399;51.686;8.684;2024-01-30T15:17:37;16.42;;;4.55;;
29422;SDS011;16399;51.686;8.684;2024-01-30T15:20:40;13.45;;;5.33;;
29422;SDS011;16399;51.686;8.684;2024-01-30T15:23:42;13.18;;;5.22;;
29422;SDS011;16399;51.686;8.684;2024-01-30T15:26:45;15.55;;;5.03;;
29422;SDS011;16399;51.686;8.684;2024-01-30T15:29:47;13.45;;;5.05;;
29422;SDS011;16399;51.686;8.684;2024-01-30T15:32:50;12.00;;;5.65;;
29422;SDS011;16399;51.686;8.684;2024-01-30T15:35:52;12.25;;;5.37;;
29422;SDS011;16399;51.686;8.684;2024-01-30T15:38:54;14.35;;;5.03;;
29422;SDS011;16399;51.686;8.684;2024-01-30T15:41:57;11.95;;;5.33;;
29422;SDS011;16399;51.686;8.684;2024-01-30T15:44:59;14.70;;;6.12;;
29422;SDS011;16399;51.686;8.684;2024-01-30T15:48:01;11.28;;;6.92;;
29422;SDS011;16399;51.686;8.684;2024-01-30T15:51:04;17.73;;;6.00;;
29422;SDS011;16399;51.686;8.684;2024-01-30T15:54:06;17.73;;;5.58;;
29422;SDS011;16399;51.686;8.684;2024-01-30T15:57:08;13.40;;;5.45;;
29422;SDS011;16399;51.686;8.684;2024-01-30T16:00:11;17.80;;;6.47;;
29422;SDS011;16399;51.686;8.684;2024-01-30T16:03:14;15.00;;;5.60;;
29422;SDS011;16399;51.686;8.684;2024-01-30T16:06:17;12.28;;;5.90;;
29422;SDS011;16399;51.686;8.684;2024-01-30T16:09:19;13.22;;;5.87;;
29422;SDS011;16399;51.686;8.684;2024-01-30T16:12:23;14.83;;;5.80;;
29422;SDS011;16399;51.686;8.684;2024-01-30T16:15:25;12.93;;;6.28;;
29422;SDS011;16399;51.686;8.684;2024-01-30T16:18:28;15.48;;;5.85;;
29422;SDS011;16399;51.686;8.684;2024-01-30T16:21:31;13.88;;;7.00;;
29422;SDS011;16399;51.686;8.684;2024-01-30T16:24:33;14.68;;;6.37;;
29422;SDS011;16399;51.686;8.684;2024-01-30T16:27:36;14.38;;;6.25;;
29422;SDS011;16399;51.686;8.684;2024-01-30T16:30:38;15.55;;;6.37;;
29422;SDS011;16399;51.686;8.684;2024-01-30T16:33:40;16.90;;;6.25;;
29422;SDS011;16399;51.686;8.684;2024-01-30T16:36:43;14.30;;;7.37;;
29422;SDS011;16399;51.686;8.684;2024-01-30T16:39:45;16.95;;;7.42;;
29422;SDS011;16399;51.686;8.684;2024-01-30T16:42:48;16.73;;;7.28;;
29422;SDS011;16399;51.686;8.684;2024-01-30T16:45:50;17.95;;;8.10;;
29422;SDS011;16399;51.686;8.684;2024-01-30T16:48:52;16.57;;;9.10;;
29422;SDS011;16399;51.686;8.684;2024-01-30T16:51:54;14.78;;;7.35;;
29422;SDS011;16399;51.686;8.684;2024-01-30T16:54:57;17.92;;;8.95;;
29422;SDS011;16399;51.686;8.684;2024-01-30T16:57:59;15.08;;;8.68;;
29422;SDS011;16399;51.686;8.684;2024-01-30T17:01:01;14.35;;;8.58;;
29422;SDS011;16399;51.686;8.684;2024-01-30T17:04:04;15.68;;;9.43;;
29422;SDS011;16399;51.686;8.684;2024-01-30T17:07:06;16.25;;;7.80;;
29422;SDS011;16399;51.686;8.684;2024-01-30T17:10:08;25.97;;;8.30;;
29422;SDS011;16399;51.686;8.684;2024-01-30T17:13:11;13.32;;;7.47;;
29422;SDS011;16399;51.686;8.684;2024-01-30T17:16:14;16.42;;;8.50;;
29422;SDS011;16399;51.686;8.684;2024-01-30T17:19:16;13.95;;;8.80;;
29422;SDS011;16399;51.686;8.684;2024-01-30T17:22:18;16.65;;;8.30;;
29422;SDS011;16399;51.686;8.684;2024-01-30T17:25:22;15.90;;;7.83;;
29422;SDS011;16399;51.686;8.684;2024-01-30T17:28:24;16.37;;;7.37;;
29422;SDS011;16399;51.686;8.684;2024-01-30T17:31:26;16.27;;;7.53;;
29422;SDS011;16399;51.686;8.684;2024-01-30T17:34:29;13.38;;;7.25;;
29422;SDS011;16399;51.686;8.684;2024-01-30T17:37:31;13.62;;;7.40;;
29422;SDS011;16399;51.686;8.684;2024-01-30T17:40:35;17.80;;;7.67;;
29422;SDS011;16399;51.686;8.684;2024-01-30T17:43:37;17.85;;;6.78;;
29422;SDS011;16399;51.686;8.684;2024-01-30T17:46:39;16.17;;;7.15;;
29422;SDS011;16399;51.686;8.684;2024-01-30T17:49:42;15.00;;;6.42;;
29422;SDS011;16399;51.686;8.684;2024-01-30T17:52:44;13.35;;;6.45;;
29422;SDS011;16399;51.686;8.684;2024-01-30T17:55:48;10.05;;;5.12;;
29422;SDS011;16399;51.686;8.684;2024-01-30T17:58:51;10.13;;;5.35;;
29422;SDS011;16399;51.686;8.684;2024-01-30T18:01:53;11.78;;;5.33;;
29422;SDS011;16399;51.686;8.684;2024-01-30T18:04:55;15.05;;;5.40;;
29422;SDS011;16399;51.686;8.684;2024-01-30T18:07:58;10.93;;;5.25;;